Time;durP1;ratioP1;P1;durP2;ratioP2;P2;SDS_P1;SDS_P2;PMS_P1;PMS_P2;Temp;Humidity;BMP_temperature;BMP_pressure;BME280_temperature;BME280_humidity;BME280_pressure;Samples;Min_cycle;Max_cycle;Signal;HPM_P1;HPM_P2
2022/08/24 00:01:27;;;;;;;5.80;5.20;;;;;;;18.04;80.94;98293.03;5113912;28;20250;-69
2022/08/24 00:03:56;;;;;;;5.53;5.00;;;;;;;18.00;81.09;98287.16;5112418;28;20222;-68
2022/08/24 00:06:25;;;;;;;5.37;4.87;;;;;;;17.92;82.28;98289.69;5110885;28;20348;-67
2022/08/24 00:08:54;;;;;;;5.67;5.13;;;;;;;17.82;83.05;98280.91;5113946;28;20268;-67
2022/08/24 00:11:21;;;;;;;5.63;5.13;;;;;;;17.78;83.82;98287.50;5113950;28;20221;-67
2022/08/24 00:13:50;;;;;;;6.30;5.70;;;;;;;17.73;84.91;98281.75;5113868;28;20283;-67
2022/08/24 00:16:17;;;;;;;5.97;5.50;;;;;;;17.70;85.84;98290.09;5108301;28;20222;-68
2022/08/24 00:18:44;;;;;;;6.17;5.67;;;;;;;17.64;86.06;98288.00;5113666;28;20218;-67
2022/08/24 00:21:11;;;;;;;5.77;5.23;;;;;;;17.59;87.01;98279.56;5105754;28;20666;-67
2022/08/24 00:23:38;;;;;;;6.30;5.70;;;;;;;17.57;86.97;98278.03;5113818;28;20226;-67
2022/08/24 00:26:06;;;;;;;8.27;6.13;;;;;;;17.50;87.04;98272.41;5100305;28;20226;-67
2022/08/24 00:28:32;;;;;;;7.90;6.23;;;;;;;17.44;87.54;98270.31;5113749;28;20286;-67
2022/08/24 00:31:01;;;;;;;6.50;5.77;;;;;;;17.40;88.03;98273.44;5115465;28;20569;-67
2022/08/24 00:33:27;;;;;;;6.87;6.27;;;;;;;17.36;88.42;98274.66;5117837;28;20714;-67
2022/08/24 00:35:54;;;;;;;7.20;6.50;;;;;;;17.32;88.98;98273.28;5114661;28;20267;-67
2022/08/24 00:38:21;;;;;;;8.97;6.93;;;;;;;17.28;89.31;98282.56;5117694;28;20286;-67
2022/08/24 00:40:49;;;;;;;8.67;7.17;;;;;;;17.23;89.64;98279.47;5117516;28;20242;-67
2022/08/24 00:43:19;;;;;;;7.40;6.70;;;;;;;17.19;90.26;98278.09;5117634;28;20291;-67
2022/08/24 00:45:49;;;;;;;7.87;7.13;;;;;;;17.18;90.10;98277.25;5111845;28;20263;-67
2022/08/24 00:48:21;;;;;;;8.47;7.67;;;;;;;17.15;90.55;98272.19;5113826;28;20301;-67
2022/08/24 00:50:54;;;;;;;8.33;7.47;;;;;;;17.10;90.95;98274.47;5117433;28;20268;-67
2022/08/24 00:53:25;;;;;;;8.93;7.97;;;;;;;16.98;91.84;98280.06;5115858;28;20303;-67
2022/08/24 00:55:56;;;;;;;8.03;7.23;;;;;;;16.89;92.59;98280.94;5115029;28;20283;-68
2022/08/24 00:58:27;;;;;;;6.80;6.20;;;;;;;16.79;92.80;98275.59;5117587;28;20222;-67
2022/08/24 01:00:57;;;;;;;7.83;7.13;;;;;;;16.71;92.86;98278.13;5117110;28;20238;-68
2022/08/24 01:03:26;;;;;;;7.30;6.53;;;;;;;16.65;92.91;98289.34;5114060;28;20264;-67
2022/08/24 01:05:55;;;;;;;7.50;6.80;;;;;;;16.56;92.88;98279.53;5117229;28;20261;-68
2022/08/24 01:08:22;;;;;;;6.80;6.20;;;;;;;16.47;92.88;98272.34;5117068;28;20226;-67
2022/08/24 01:10:53;;;;;;;7.27;6.60;;;;;;;16.41;93.37;98275.56;5117073;28;20309;-67
2022/08/24 01:13:21;;;;;;;7.00;6.13;;;;;;;16.36;93.82;98275.13;5111900;28;20288;-68
2022/08/24 01:15:51;;;;;;;6.33;5.73;;;;;;;16.34;93.65;98276.25;5117037;28;20233;-68
2022/08/24 01:21:14;;;;;;;6.87;6.17;;;;;;;16.26;93.97;98278.75;5113217;28;20690;-68
2022/08/24 01:23:46;;;;;;;6.50;5.70;;;;;;;16.24;93.71;98275.38;5116419;28;20331;-68
2022/08/24 01:26:18;;;;;;;6.73;5.33;;;;;;;16.20;93.99;98282.81;5116869;28;20272;-69
2022/08/24 01:28:47;;;;;;;5.97;5.43;;;;;;;16.15;94.37;98285.03;5115083;28;20304;-68
2022/08/24 01:31:15;;;;;;;6.60;5.60;;;;;;;16.08;94.78;98281.25;5115916;28;20570;-68
2022/08/24 01:33:42;;;;;;;5.60;5.10;;;;;;;16.08;95.09;98283.91;5116751;28;20226;-68
2022/08/24 01:36:17;;;;;;;5.83;5.43;;;;;;;16.02;95.95;98288.09;5116746;28;20310;-69
2022/08/24 01:38:47;;;;;;;5.97;5.47;;;;;;;15.98;96.08;98283.03;5113486;28;20257;-68
2022/08/24 01:41:14;;;;;;;5.93;5.43;;;;;;;15.97;96.35;98287.66;5098542;28;20591;-68
2022/08/24 01:43:41;;;;;;;6.03;5.43;;;;;;;15.93;96.64;98288.91;5107635;28;20292;-68
2022/08/24 01:46:09;;;;;;;6.30;5.47;;;;;;;15.92;96.73;98293.41;5116389;28;20290;-67
2022/08/24 01:48:36;;;;;;;6.00;5.50;;;;;;;15.90;96.69;98291.84;5111585;28;20305;-67
2022/08/24 01:51:02;;;;;;;5.77;5.30;;;;;;;15.86;96.70;98295.75;5116326;28;20569;-67
2022/08/24 01:53:30;;;;;;;6.30;5.80;;;;;;;15.82;97.05;98299.69;5116318;28;20732;-68
2022/08/24 01:55:58;;;;;;;8.80;5.77;;;;;;;15.79;97.44;98302.59;5116206;28;20226;-68
2022/08/24 01:58:25;;;;;;;6.20;5.70;;;;;;;15.76;97.62;98303.72;5113152;28;20280;-68
2022/08/24 02:00:51;;;;;;;6.23;5.63;;;;;;;15.72;97.92;98302.31;5089546;28;20262;-68
2022/08/24 02:03:19;;;;;;;6.20;5.60;;;;;;;15.66;98.25;98291.31;5114407;28;20226;-67
2022/08/24 02:05:46;;;;;;;5.90;5.40;;;;;;;15.63;98.40;98299.59;5116019;28;20226;-69
2022/08/24 02:08:12;;;;;;;6.13;5.57;;;;;;;15.57;98.90;98302.78;5113214;28;20626;-69
2022/08/24 02:10:39;;;;;;;6.73;6.13;;;;;;;15.51;99.49;98298.81;5115702;28;20627;-69
2022/08/24 02:13:07;;;;;;;6.03;5.53;;;;;;;15.45;100.00;98307.34;5115945;28;20291;-68
2022/08/24 02:15:38;;;;;;;6.93;6.10;;;;;;;15.43;100.00;98301.31;5114169;28;20623;-68
2022/08/24 02:18:05;;;;;;;6.43;5.93;;;;;;;15.38;100.00;98297.34;5112710;28;20227;-69
2022/08/24 02:20:32;;;;;;;6.60;6.10;;;;;;;15.40;100.00;98308.72;5097709;28;20226;-70
2022/08/24 02:23:00;;;;;;;7.53;6.37;;;;;;;15.36;100.00;98305.47;5115714;28;20595;-68
2022/08/24 02:25:29;;;;;;;7.20;6.50;;;;;;;15.31;100.00;98307.66;5115691;28;20695;-69
2022/08/24 02:27:56;;;;;;;7.00;6.40;;;;;;;15.30;100.00;98310.44;5112500;28;20226;-67
2022/08/24 02:30:25;;;;;;;7.27;6.27;;;;;;;15.25;100.00;98305.50;5115652;28;20222;-68
2022/08/24 02:32:51;;;;;;;8.87;6.13;;;;;;;15.25;100.00;98307.31;5115491;28;20265;-67
2022/08/24 02:35:18;;;;;;;7.43;6.70;;;;;;;15.22;100.00;98304.94;5115402;28;20261;-69
2022/08/24 02:37:45;;;;;;;7.13;6.47;;;;;;;15.16;100.00;98308.94;5112337;28;20276;-68
2022/08/24 02:40:13;;;;;;;6.70;6.10;;;;;;;15.14;100.00;98312.69;5086899;28;20222;-69
2022/08/24 02:42:40;;;;;;;6.57;5.97;;;;;;;15.14;100.00;98302.91;5115338;28;20306;-69
2022/08/24 02:45:08;;;;;;;7.10;6.40;;;;;;;15.16;100.00;98308.94;5115261;28;20226;-69
2022/08/24 02:47:37;;;;;;;7.93;7.13;;;;;;;15.11;100.00;98308.50;5112143;28;20621;-69
2022/08/24 02:50:06;;;;;;;6.73;6.13;;;;;;;15.06;100.00;98313.38;5089215;28;20620;-69
2022/08/24 02:52:34;;;;;;;6.93;6.33;;;;;;;15.02;100.00;98298.63;5114730;28;20273;-68
2022/08/24 02:55:01;;;;;;;7.17;6.13;;;;;;;15.07;100.00;98295.56;5114523;28;20225;-68
2022/08/24 02:57:28;;;;;;;6.27;5.77;;;;;;;15.10;100.00;98293.50;5111923;28;20279;-68
2022/08/24 02:59:55;;;;;;;6.63;5.93;;;;;;;15.09;100.00;98301.63;5115032;28;20253;-67
2022/08/24 03:02:22;;;;;;;7.27;6.57;;;;;;;15.03;100.00;98295.00;5114835;28;20264;-69
2022/08/24 03:04:50;;;;;;;7.07;6.37;;;;;;;14.97;100.00;98297.34;5114927;28;20226;-68
2022/08/24 03:07:16;;;;;;;6.70;6.10;;;;;;;14.95;100.00;98299.25;5109948;28;20550;-67
2022/08/24 03:09:43;;;;;;;6.33;5.73;;;;;;;15.00;100.00;98302.38;5114823;28;20596;-70
2022/08/24 03:12:10;;;;;;;7.10;6.50;;;;;;;14.99;100.00;98295.38;5114809;28;20221;-67
2022/08/24 03:14:36;;;;;;;6.90;6.20;;;;;;;14.99;100.00;98288.25;5114678;28;20222;-67
2022/08/24 03:17:03;;;;;;;7.17;6.30;;;;;;;14.88;100.00;98292.78;5111747;28;20288;-68
2022/08/24 03:19:30;;;;;;;7.00;6.30;;;;;;;14.79;100.00;98297.03;5114408;28;20341;-68
2022/08/24 03:21:58;;;;;;;7.20;6.47;;;;;;;14.71;100.00;98296.00;5114505;28;20590;-68
2022/08/24 03:24:25;;;;;;;7.57;6.27;;;;;;;14.67;100.00;98297.22;5114603;28;20268;-68
2022/08/24 03:26:52;;;;;;;6.90;6.30;;;;;;;14.63;100.00;98293.13;5111968;28;20310;-68
2022/08/24 03:29:19;;;;;;;6.90;6.30;;;;;;;14.59;100.00;98287.22;5114199;28;20302;-68
2022/08/24 03:31:46;;;;;;;7.40;6.70;;;;;;;14.57;100.00;98288.31;5114389;28;20226;-68
2022/08/24 03:34:13;;;;;;;7.40;6.70;;;;;;;14.51;100.00;98286.16;5112656;28;20222;-69
2022/08/24 03:36:40;;;;;;;6.97;6.37;;;;;;;14.47;100.00;98292.69;5112061;28;20226;-69
2022/08/24 03:39:08;;;;;;;6.73;6.07;;;;;;;14.48;100.00;98281.13;5113704;28;20623;-68
2022/08/24 03:41:34;;;;;;;7.13;6.50;;;;;;;14.47;100.00;98282.06;5114112;28;20277;-68
2022/08/24 03:44:01;;;;;;;7.40;6.73;;;;;;;14.48;100.00;98283.78;5114341;28;20245;-68
2022/08/24 03:46:29;;;;;;;7.60;6.90;;;;;;;14.50;100.00;98287.13;5112127;28;20239;-68
2022/08/24 03:48:57;;;;;;;7.93;7.13;;;;;;;14.50;100.00;98284.47;5113544;28;20296;-68
2022/08/24 03:51:27;;;;;;;8.97;8.10;;;;;;;14.48;100.00;98292.56;5114099;28;20290;-68
2022/08/24 03:53:55;;;;;;;8.13;7.37;;;;;;;14.46;100.00;98285.69;5114159;28;20624;-69
2022/08/24 03:56:23;;;;;;;8.47;7.67;;;;;;;14.46;100.00;98288.34;5111407;28;20278;-69
2022/08/24 03:58:50;;;;;;;10.30;7.90;;;;;;;14.43;100.00;98289.44;5112280;28;20222;-68
2022/08/24 04:01:17;;;;;;;8.63;7.90;;;;;;;14.47;100.00;98293.56;5114015;28;20274;-68
2022/08/24 04:03:46;;;;;;;8.27;7.47;;;;;;;14.46;100.00;98296.31;5114008;28;20264;-68
2022/08/24 04:06:14;;;;;;;8.10;7.30;;;;;;;14.47;100.00;98292.69;5110945;28;20283;-68
2022/08/24 04:08:42;;;;;;;8.03;7.23;;;;;;;14.44;100.00;98295.63;5087377;28;20683;-68
2022/08/24 04:11:10;;;;;;;9.73;7.93;;;;;;;14.44;100.00;98288.50;5114003;28;20287;-68
2022/08/24 04:13:39;;;;;;;8.40;7.50;;;;;;;14.48;100.00;98294.41;5113986;28;20257;-68
2022/08/24 04:16:06;;;;;;;8.47;7.53;;;;;;;14.48;100.00;98292.56;5110714;28;20248;-68
2022/08/24 04:18:33;;;;;;;9.37;8.50;;;;;;;14.50;100.00;98289.78;5113913;28;20230;-68
2022/08/24 04:21:00;;;;;;;9.63;8.33;;;;;;;14.47;100.00;98298.00;5105979;28;20233;-68
2022/08/24 04:23:27;;;;;;;8.77;7.93;;;;;;;14.46;100.00;98296.31;5113786;28;20294;-68
2022/08/24 04:25:53;;;;;;;9.33;8.43;;;;;;;14.48;100.00;98294.41;5109284;28;20226;-69
2022/08/24 04:28:22;;;;;;;8.90;8.00;;;;;;;14.49;100.00;98296.09;5087059;28;20499;-68
2022/08/24 04:30:50;;;;;;;9.77;8.50;;;;;;;14.50;100.00;98303.09;5113978;28;20768;-68
2022/08/24 04:33:18;;;;;;;10.23;9.13;;;;;;;14.49;100.00;98307.56;5113886;28;20260;-68
2022/08/24 04:35:47;;;;;;;10.33;9.33;;;;;;;14.45;100.00;98321.25;5110649;28;20288;-68
2022/08/24 04:38:15;;;;;;;9.23;8.47;;;;;;;14.48;100.00;98318.34;5087914;28;20705;-68
2022/08/24 04:40:44;;;;;;;10.43;8.63;;;;;;;14.49;100.00;98315.53;5113687;28;20508;-67
2022/08/24 04:43:13;;;;;;;10.03;9.10;;;;;;;14.46;100.00;98313.16;5113577;28;20315;-68
2022/08/24 04:45:41;;;;;;;9.37;8.47;;;;;;;14.53;100.00;98322.31;5110551;28;20310;-68
2022/08/24 04:48:10;;;;;;;9.67;8.70;;;;;;;14.61;100.00;98313.69;5113743;28;20279;-69
2022/08/24 04:50:38;;;;;;;10.73;8.47;;;;;;;14.67;100.00;98321.19;5113172;28;20218;-68
2022/08/24 04:53:06;;;;;;;8.73;7.93;;;;;;;14.75;100.00;98319.56;5112404;28;20310;-68
2022/08/24 04:55:34;;;;;;;9.77;8.77;;;;;;;14.83;100.00;98321.56;5108214;28;20568;-68
2022/08/24 04:58:00;;;;;;;9.40;8.50;;;;;;;14.88;100.00;98325.56;5113600;28;20257;-68
2022/08/24 05:00:27;;;;;;;11.27;8.87;;;;;;;14.98;100.00;98325.63;5113621;28;20222;-67
2022/08/24 05:02:54;;;;;;;9.23;8.33;;;;;;;15.07;100.00;98325.72;5113456;28;20583;-67
2022/08/24 05:05:22;;;;;;;9.13;8.07;;;;;;;15.17;100.00;98331.09;5110394;28;20231;-67
2022/08/24 05:07:49;;;;;;;8.63;7.93;;;;;;;15.28;100.00;98333.69;5113523;28;20272;-68
2022/08/24 05:10:16;;;;;;;9.97;7.83;;;;;;;15.41;100.00;98339.72;5113537;28;20229;-68
2022/08/24 05:12:43;;;;;;;8.70;7.90;;;;;;;15.50;100.00;98337.09;5113498;28;20230;-67
2022/08/24 05:15:10;;;;;;;8.80;7.90;;;;;;;15.64;100.00;98330.59;5110280;28;20258;-68
2022/08/24 05:17:39;;;;;;;8.90;8.00;;;;;;;15.73;100.00;98335.13;5113895;28;20222;-68
2022/08/24 05:20:07;;;;;;;8.43;7.63;;;;;;;15.85;100.00;98329.56;5116953;28;20517;-69
2022/08/24 05:22:36;;;;;;;9.30;7.40;;;;;;;16.02;100.00;98338.75;5116944;28;20242;-69
2022/08/24 05:25:03;;;;;;;8.43;7.37;;;;;;;16.14;100.00;98331.34;5111294;28;20612;-69
2022/08/24 05:27:29;;;;;;;8.53;7.63;;;;;;;16.31;100.00;98338.72;5116830;28;20261;-69
2022/08/24 05:29:56;;;;;;;8.00;7.30;;;;;;;16.46;100.00;98331.19;5116889;28;20222;-69
2022/08/24 05:32:23;;;;;;;8.20;7.37;;;;;;;16.60;100.00;98336.13;5116780;28;20604;-69
2022/08/24 05:34:49;;;;;;;9.37;7.37;;;;;;;16.73;100.00;98329.56;5103121;28;20283;-67
2022/08/24 05:37:16;;;;;;;7.40;6.70;;;;;;;16.88;99.75;98330.00;5116678;28;20249;-67
2022/08/24 05:39:44;;;;;;;8.67;7.77;;;;;;;17.02;98.57;98332.22;5116524;28;20268;-69
2022/08/24 05:42:12;;;;;;;8.23;7.43;;;;;;;17.14;97.25;98334.59;5116383;28;20254;-67
2022/08/24 05:44:39;;;;;;;7.87;7.17;;;;;;;17.28;97.28;98341.34;5111686;28;20222;-67
2022/08/24 05:47:05;;;;;;;7.83;6.97;;;;;;;17.43;97.08;98340.78;5113014;28;20262;-67
2022/08/24 05:49:32;;;;;;;7.97;7.20;;;;;;;17.60;95.83;98341.88;5107758;28;20290;-67
2022/08/24 05:51:59;;;;;;;7.63;7.03;;;;;;;17.70;95.36;98348.91;5116268;28;20258;-67
2022/08/24 05:54:25;;;;;;;8.47;7.60;;;;;;;17.92;93.09;98348.53;5113090;28;20272;-68
2022/08/24 05:56:56;;;;;;;7.77;7.07;;;;;;;17.99;92.80;98354.97;5116232;28;20300;-66
2022/08/24 05:59:22;;;;;;;7.17;6.37;;;;;;;18.10;92.55;98351.28;5116311;28;20298;-67
2022/08/24 06:01:49;;;;;;;7.30;6.60;;;;;;;18.21;90.92;98359.97;5116233;28;20226;-67
2022/08/24 06:04:16;;;;;;;7.33;6.63;;;;;;;18.49;88.00;98359.03;5112994;28;20589;-68
2022/08/24 06:06:42;;;;;;;7.57;6.80;;;;;;;19.03;85.04;98356.22;5116034;28;20595;-68
2022/08/24 06:09:11;;;;;;;6.07;5.50;;;;;;;19.67;80.44;98362.16;5114021;28;20287;-69
2022/08/24 06:11:40;;;;;;;5.83;5.30;;;;;;;20.32;76.43;98360.72;5116114;28;20544;-68
2022/08/24 06:14:10;;;;;;;5.37;4.87;;;;;;;20.86;72.71;98363.75;5112783;28;20255;-68
2022/08/24 06:16:38;;;;;;;5.90;5.17;;;;;;;21.28;69.41;98353.78;5116021;28;20320;-68
2022/08/24 06:19:06;;;;;;;5.60;5.10;;;;;;;21.42;67.95;98361.19;5112704;28;20272;-68
2022/08/24 06:21:33;;;;;;;5.93;5.30;;;;;;;21.12;68.83;98361.84;5111771;28;20256;-68
2022/08/24 06:24:00;;;;;;;6.37;5.37;;;;;;;20.60;71.30;98370.25;5112664;28;20341;-68
2022/08/24 06:29:14;;;;;;;5.80;5.30;;;;;;;19.88;74.67;98373.38;5115752;28;20255;-69
2022/08/24 06:31:43;;;;;;;6.47;5.60;;;;;;;19.73;75.81;98361.53;5113541;28;20230;-67
2022/08/24 06:34:12;;;;;;;6.30;5.50;;;;;;;19.68;75.54;98363.84;5113717;28;20574;-66
2022/08/24 06:36:39;;;;;;;6.40;5.23;;;;;;;19.63;76.27;98359.97;5111175;28;20226;-67
2022/08/24 06:39:07;;;;;;;5.80;5.10;;;;;;;19.63;76.54;98363.47;5105682;28;20227;-66
2022/08/24 06:41:35;;;;;;;6.93;5.67;;;;;;;19.64;76.84;98351.75;5110659;28;20226;-65
2022/08/24 06:44:01;;;;;;;5.93;5.33;;;;;;;19.73;76.47;98358.88;5105110;28;20292;-66
2022/08/24 06:46:30;;;;;;;5.93;5.40;;;;;;;19.82;76.07;98360.59;5104690;28;20238;-65
2022/08/24 06:48:56;;;;;;;6.07;4.93;;;;;;;19.96;76.11;98364.53;5106455;28;20576;-65
2022/08/24 06:51:24;;;;;;;5.40;5.00;;;;;;;20.04;75.49;98368.09;5102913;28;20225;-66
2022/08/24 06:53:51;;;;;;;5.70;5.20;;;;;;;20.15;74.23;98365.19;5102432;28;20272;-67
2022/08/24 06:56:19;;;;;;;5.50;5.00;;;;;;;20.25;73.92;98370.44;5102438;28;20276;-67
2022/08/24 06:58:46;;;;;;;5.40;4.90;;;;;;;20.34;72.98;98370.31;5105290;28;20229;-66
2022/08/24 07:01:15;;;;;;;5.07;4.57;;;;;;;20.43;72.86;98363.13;5103773;28;20238;-66
2022/08/24 07:03:44;;;;;;;6.37;5.13;;;;;;;20.57;71.15;98376.78;5100342;28;20244;-66
2022/08/24 07:06:12;;;;;;;5.63;4.80;;;;;;;20.69;71.46;98375.50;5101661;28;20259;-66
2022/08/24 07:08:41;;;;;;;6.33;5.10;;;;;;;20.79;71.22;98381.53;5095978;28;20560;-66
2022/08/24 07:11:08;;;;;;;5.80;5.13;;;;;;;20.93;69.97;98385.50;5102954;28;20230;-66
2022/08/24 07:13:35;;;;;;;6.63;5.30;;;;;;;21.06;69.52;98378.63;5100990;28;20281;-66
2022/08/24 07:16:03;;;;;;;6.13;5.17;;;;;;;21.15;69.33;98380.31;5102032;28;20226;-65
2022/08/24 07:18:30;;;;;;;5.77;5.20;;;;;;;21.31;68.18;98385.72;5105819;28;20222;-66
2022/08/24 07:21:00;;;;;;;6.03;5.10;;;;;;;21.35;68.04;98381.72;5102104;28;20222;-66
2022/08/24 07:23:27;;;;;;;6.50;5.70;;;;;;;21.49;66.81;98389.09;5101673;28;20245;-66
2022/08/24 07:25:53;;;;;;;5.30;4.80;;;;;;;21.55;66.86;98384.88;5102210;28;20296;-65
2022/08/24 07:28:20;;;;;;;7.70;4.70;;;;;;;21.65;65.83;98386.38;5103049;28;20226;-65
2022/08/24 07:30:47;;;;;;;6.57;4.83;;;;;;;21.70;65.48;98392.16;5102756;28;20279;-65
2022/08/24 07:33:13;;;;;;;5.67;4.10;;;;;;;21.77;65.77;98389.63;5101558;28;20218;-65
2022/08/24 07:35:40;;;;;;;4.77;4.20;;;;;;;21.89;64.93;98389.09;5100869;28;20316;-66
2022/08/24 07:38:08;;;;;;;4.77;4.20;;;;;;;22.05;64.33;98394.47;5095214;28;20267;-66
2022/08/24 07:40:36;;;;;;;4.63;3.80;;;;;;;22.21;63.91;98398.97;5102012;28;20283;-66
2022/08/24 07:43:02;;;;;;;4.40;4.00;;;;;;;22.33;61.87;98409.22;5100674;28;20247;-66
2022/08/24 07:45:32;;;;;;;5.37;3.73;;;;;;;22.41;60.63;98403.81;5099392;28;20223;-66
2022/08/24 07:48:01;;;;;;;4.00;3.53;;;;;;;22.56;58.81;98401.25;5094285;28;20231;-66
2022/08/24 07:50:29;;;;;;;5.13;3.70;;;;;;;22.57;58.15;98403.78;5098293;28;20293;-66
2022/08/24 07:52:56;;;;;;;4.30;3.40;;;;;;;22.64;58.04;98410.16;5098891;28;20300;-68
2022/08/24 07:55:25;;;;;;;3.73;3.17;;;;;;;22.72;58.17;98410.09;5099514;28;20305;-66
2022/08/24 07:57:51;;;;;;;3.03;2.83;;;;;;;22.82;57.13;98399.97;5093816;28;20760;-67
2022/08/24 08:00:19;;;;;;;3.80;3.00;;;;;;;22.99;55.82;98406.94;5099509;28;20629;-66
2022/08/24 08:02:46;;;;;;;3.80;3.10;;;;;;;23.07;54.69;98408.75;5099608;28;20244;-66
2022/08/24 08:05:13;;;;;;;3.00;2.70;;;;;;;23.21;52.87;98413.41;5102250;28;20257;-66
2022/08/24 08:07:40;;;;;;;2.90;2.70;;;;;;;23.21;52.35;98410.72;5094896;28;20306;-66
2022/08/24 08:10:09;;;;;;;2.53;2.33;;;;;;;23.31;52.58;98406.78;5099491;28;20226;-66
2022/08/24 08:12:37;;;;;;;2.90;2.50;;;;;;;23.50;51.78;98406.31;5099508;28;20561;-66
2022/08/24 08:15:07;;;;;;;2.83;2.63;;;;;;;23.64;50.70;98408.22;5102113;28;20613;-66
2022/08/24 08:17:34;;;;;;;2.80;2.40;;;;;;;23.73;49.83;98401.75;5099518;28;20531;-65
2022/08/24 08:20:01;;;;;;;2.50;2.30;;;;;;;23.86;48.42;98399.25;5097185;28;20222;-66
2022/08/24 08:25:13;;;;;;;3.43;2.33;;;;;;;23.91;49.01;98404.13;5098168;28;20217;-66
2022/08/24 08:27:41;;;;;;;2.93;2.10;;;;;;;24.00;49.50;98387.69;5099409;28;20275;-66
2022/08/24 08:30:09;;;;;;;2.97;2.30;;;;;;;24.18;48.81;98396.28;5099441;28;20222;-66
2022/08/24 08:32:35;;;;;;;2.10;2.00;;;;;;;24.31;48.27;98393.75;5100617;28;20222;-66
2022/08/24 08:35:02;;;;;;;2.70;2.20;;;;;;;24.41;47.82;98394.34;5100566;28;20270;-66
2022/08/24 08:37:29;;;;;;;2.40;2.20;;;;;;;24.47;46.61;98396.28;5099325;28;20500;-66
2022/08/24 08:39:57;;;;;;;3.50;2.20;;;;;;;24.60;47.42;98387.53;5099369;28;20260;-66
2022/08/24 08:42:43;;;;;;;2.60;2.33;;;;;;;24.73;47.51;98388.56;5100332;28;20222;-66
2022/08/24 08:45:25;;;;;;;3.17;2.23;;;;;;;24.80;47.21;98385.97;5095624;28;20555;-66
2022/08/24 08:48:13;;;;;;;3.00;2.10;;;;;;;24.88;47.47;98383.97;5097442;28;20457;-66
2022/08/24 08:50:57;;;;;;;2.30;2.10;;;;;;;24.99;46.63;98380.78;5097098;28;20257;-66
2022/08/24 08:53:46;;;;;;;2.93;2.20;;;;;;;25.05;46.97;98387.31;5102860;28;20303;-66
2022/08/24 08:56:23;;;;;;;2.90;2.00;;;;;;;25.17;46.21;98385.78;5104410;28;20226;-66
2022/08/24 08:59:02;;;;;;;4.35;2.17;;;;;;;25.30;45.40;98378.66;5098426;28;20238;-66
2022/08/24 09:01:41;;;;;;;2.43;2.00;;;;;;;25.32;44.98;98378.47;5092547;28;20227;-66
2022/08/24 09:04:44;;;;;;;3.00;2.07;;;;;;;25.39;46.10;98377.50;5104580;28;20308;-65
2022/08/24 09:07:24;;;;;;;2.45;2.20;;;;;;;25.52;45.61;98384.91;5102295;28;20258;-66
2022/08/24 09:10:09;;;;;;;2.08;1.88;;;;;;;25.61;45.16;98375.63;5103054;28;20269;-66
2022/08/24 09:12:51;;;;;;;2.10;1.97;;;;;;;25.69;44.86;98381.75;5098008;28;20226;-66
2022/08/24 09:15:43;;;;;;;3.42;2.00;;;;;;;25.82;44.45;98379.16;5090753;28;20283;-68
2022/08/24 09:18:23;;;;;;;2.05;1.80;;;;;;;26.02;43.95;98374.75;5097566;28;20265;-67
2022/08/24 09:21:03;;;;;;;2.22;2.03;;;;;;;26.21;44.04;98374.06;5099661;28;20226;-68
2022/08/24 09:23:37;;;;;;;2.05;1.70;;;;;;;26.37;43.58;98379.19;5102394;28;20246;-67
2022/08/24 09:26:10;;;;;;;3.15;1.88;;;;;;;26.51;43.73;98386.34;5100220;28;20683;-67
2022/08/24 09:28:48;;;;;;;3.60;1.77;;;;;;;26.61;42.44;98375.16;5102218;28;20237;-68
2022/08/24 09:31:45;;;;;;;1.70;1.60;;;;;;;26.70;42.62;98374.81;5102182;28;20265;-67
2022/08/24 09:34:33;;;;;;;3.15;2.33;;;;;;;26.82;41.88;98372.38;5096053;28;20223;-67
2022/08/24 09:37:11;;;;;;;2.58;2.00;;;;;;;26.98;42.62;98383.69;5092529;28;20689;-67
2022/08/24 09:39:57;;;;;;;1.80;1.70;;;;;;;27.09;41.88;98374.97;5102809;28;20298;-67
2022/08/24 09:42:59;;;;;;;2.75;2.08;;;;;;;27.01;41.74;98372.44;5099787;28;20254;-68
2022/08/24 09:46:13;;;;;;;1.98;1.77;;;;;;;27.09;41.85;98374.97;5103705;28;20237;-68
2022/08/24 09:49:09;;;;;;;2.85;1.77;;;;;;;27.10;40.99;98372.03;5091190;28;20252;-67
2022/08/24 09:52:03;;;;;;;3.45;2.25;;;;;;;27.04;41.94;98372.03;5101696;28;20250;-67
2022/08/24 09:54:56;;;;;;;2.13;1.92;;;;;;;27.07;41.42;98371.63;5073681;28;20275;-67
2022/08/24 09:58:01;;;;;;;3.42;1.90;;;;;;;27.12;43.31;98362.88;5109305;28;20232;-67
2022/08/24 10:00:33;;;;;;;1.90;1.80;;;;;;;27.20;41.43;98360.81;5076231;28;20230;-67
2022/08/24 10:03:13;;;;;;;2.92;1.80;;;;;;;27.33;41.35;98355.44;5102061;28;20227;-68
2022/08/24 10:06:03;;;;;;;1.70;1.50;;;;;;;27.56;41.12;98366.75;5095791;28;20226;-68
2022/08/24 10:08:44;;;;;;;2.03;1.83;;;;;;;27.73;40.77;98357.16;5092368;28;20283;-67
2022/08/24 10:11:21;;;;;;;1.92;1.60;;;;;;;27.84;39.79;98357.41;5104171;28;20666;-67
2022/08/24 10:14:00;;;;;;;1.70;1.60;;;;;;;27.85;39.19;98358.25;5101238;28;20222;-68
2022/08/24 10:16:38;;;;;;;2.03;1.88;;;;;;;27.85;39.04;98356.38;5101417;28;20261;-68
2022/08/24 10:19:22;;;;;;;3.33;1.67;;;;;;;27.97;37.74;98349.25;5096606;28;20391;-68
2022/08/24 10:21:58;;;;;;;1.85;1.75;;;;;;;28.11;37.78;98350.06;5101154;28;20230;-68
2022/08/24 10:24:40;;;;;;;2.53;1.38;;;;;;;28.19;36.37;98336.28;5101156;28;20584;-67
2022/08/24 10:27:20;;;;;;;1.77;1.50;;;;;;;28.16;36.73;98342.13;5099649;28;20275;-68
2022/08/24 10:30:07;;;;;;;1.80;1.50;;;;;;;28.31;36.21;98334.56;5101143;28;20227;-68
2022/08/24 10:32:50;;;;;;;1.60;1.50;;;;;;;28.41;36.00;98337.69;5100695;28;20222;-68
2022/08/24 10:35:21;;;;;;;1.52;1.42;;;;;;;28.39;35.15;98335.22;5097182;28;20322;-68
2022/08/24 10:41:30;;;;;;;1.55;1.45;;;;;;;28.42;35.37;98326.63;5100992;28;20218;-68
2022/08/24 10:44:26;;;;;;;1.67;1.40;;;;;;;28.49;34.33;98330.16;5079221;28;20243;-68
2022/08/24 10:46:59;;;;;;;1.80;1.50;;;;;;;28.51;35.11;98327.22;5100179;28;20222;-68
2022/08/24 10:49:57;;;;;;;1.67;1.58;;;;;;;28.56;33.03;98321.97;5100663;28;20233;-65
2022/08/24 10:53:04;;;;;;;2.10;1.60;;;;;;;28.41;34.77;98322.22;5103463;28;20250;-68
2022/08/24 10:55:33;;;;;;;1.60;1.50;;;;;;;28.46;35.55;98327.03;5090086;28;20223;-66
2022/08/24 10:58:22;;;;;;;1.92;1.30;;;;;;;28.57;35.07;98324.50;5099820;28;20226;-67
2022/08/24 11:00:49;;;;;;;1.50;1.40;;;;;;;28.35;35.26;98325.78;5096448;28;20578;-67
2022/08/24 11:03:20;;;;;;;2.42;1.63;;;;;;;28.29;36.95;98331.22;5100573;28;20276;-68
2022/08/24 11:05:50;;;;;;;1.52;1.42;;;;;;;28.21;36.77;98324.13;5100169;28;20249;-68
2022/08/24 11:08:23;;;;;;;1.50;1.40;;;;;;;28.42;35.57;98315.75;5100441;28;20226;-66
2022/08/24 11:11:06;;;;;;;1.63;1.40;;;;;;;28.44;36.14;98318.25;5100377;28;20226;-67
2022/08/24 11:13:36;;;;;;;1.65;1.50;;;;;;;28.50;36.02;98322.84;5098894;28;20719;-67
2022/08/24 11:16:04;;;;;;;1.63;1.52;;;;;;;28.63;35.58;98322.78;5101180;28;20714;-66
2022/08/24 11:18:48;;;;;;;2.13;1.63;;;;;;;28.68;35.63;98322.97;5098100;28;20277;-68
2022/08/24 11:21:35;;;;;;;2.70;1.80;;;;;;;28.70;35.86;98329.03;5089793;28;20222;-67
2022/08/24 11:24:03;;;;;;;1.70;1.55;;;;;;;28.76;36.23;98322.72;5096857;28;20317;-68
2022/08/24 11:26:30;;;;;;;2.17;1.60;;;;;;;28.71;36.10;98317.94;5106064;28;20256;-68
2022/08/24 11:29:04;;;;;;;2.55;2.10;;;;;;;28.80;36.32;98318.53;5103192;28;20262;-67
2022/08/24 11:31:35;;;;;;;1.67;1.58;;;;;;;28.86;36.41;98312.22;5108190;28;20556;-68
2022/08/24 11:34:06;;;;;;;4.38;1.80;;;;;;;28.97;36.27;98308.84;5109504;28;20247;-68
2022/08/24 11:36:36;;;;;;;1.88;1.70;;;;;;;29.04;36.29;98305.03;5102702;28;20313;-70
2022/08/24 11:39:17;;;;;;;1.77;1.67;;;;;;;29.09;36.73;98307.13;5100466;28;20226;-69
2022/08/24 11:41:54;;;;;;;2.55;1.98;;;;;;;29.30;36.50;98304.03;5112160;28;20229;-69
2022/08/24 11:44:45;;;;;;;1.92;1.60;;;;;;;29.29;37.11;98299.66;5106197;28;20261;-70
2022/08/24 11:47:44;;;;;;;3.00;1.55;;;;;;;29.39;34.40;98292.66;5093795;28;20225;-69
2022/08/24 11:50:23;;;;;;;1.60;1.50;;;;;;;29.46;35.21;98303.50;5097421;28;20227;-68
2022/08/24 11:52:59;;;;;;;2.83;1.70;;;;;;;29.51;34.82;98295.50;5110381;28;20340;-68
2022/08/24 11:55:33;;;;;;;2.05;1.60;;;;;;;29.55;35.93;98299.47;5111996;28;20221;-69
2022/08/24 11:58:06;;;;;;;2.35;1.73;;;;;;;29.56;35.90;98306.59;5107628;28;20262;-68
2022/08/24 12:00:45;;;;;;;1.70;1.60;;;;;;;29.56;35.31;98293.81;5108219;28;20218;-68
2022/08/24 12:03:40;;;;;;;1.83;1.73;;;;;;;29.48;36.30;98301.41;5110658;28;20225;-68